createdAt,value
2022-08-22T00:01:14.364Z,18.20
2022-08-22T00:02:57.280Z,23.10
2022-08-22T00:03:06.941Z,18.80
2022-08-22T00:03:15.953Z,18.70
2022-08-22T00:06:22.958Z,18.10
2022-08-22T00:09:15.981Z,17.90
2022-08-22T00:12:26.488Z,17.80
2022-08-22T00:15:31.587Z,17.80
2022-08-22T00:18:29.726Z,17.70
2022-08-22T00:21:19.409Z,17.70
2022-08-22T00:23:53.009Z,17.80
2022-08-22T00:26:45.082Z,17.70
2022-08-22T00:29:23.660Z,17.80
2022-08-22T00:32:14.521Z,17.80
2022-08-22T00:34:58.675Z,17.80
2022-08-22T00:37:43.328Z,17.80
2022-08-22T00:41:06.615Z,17.70
2022-08-22T00:44:30.384Z,17.70
2022-08-22T00:47:46.106Z,17.70
2022-08-22T00:50:24.781Z,17.70
2022-08-22T00:53:22.685Z,17.70
2022-08-22T00:56:01.614Z,17.70
2022-08-22T00:58:45.836Z,17.60
2022-08-22T01:01:15.437Z,17.60
2022-08-22T01:03:48.149Z,17.60
2022-08-22T01:06:37.171Z,17.60
2022-08-22T01:09:43.432Z,17.70
2022-08-22T01:12:41.988Z,17.70
2022-08-22T01:15:24.701Z,17.70
2022-08-22T01:18:18.881Z,17.70
2022-08-22T01:21:26.047Z,17.60
2022-08-22T01:24:26.715Z,17.60
2022-08-22T01:28:01.458Z,17.60
2022-08-22T01:31:23.736Z,17.60
2022-08-22T01:34:34.044Z,17.50
2022-08-22T01:37:34.009Z,17.40
2022-08-22T01:40:53.797Z,17.30
2022-08-22T01:44:21.740Z,17.30
2022-08-22T01:47:22.858Z,17.20
2022-08-22T01:52:48.676Z,16.90
2022-08-22T01:55:26.971Z,16.80
2022-08-22T01:57:59.232Z,16.70
2022-08-22T02:00:34.852Z,16.70
2022-08-22T02:03:27.093Z,16.60
2022-08-22T02:06:18.044Z,16.50
2022-08-22T02:09:01.609Z,16.50
2022-08-22T02:11:42.945Z,16.30
2022-08-22T02:15:00.202Z,16.20
2022-08-22T02:17:32.688Z,16.10
2022-08-22T02:20:33.335Z,16.10
2022-08-22T02:23:33.612Z,16.10
2022-08-22T02:26:03.423Z,16.00
2022-08-22T02:28:57.177Z,16.00
2022-08-22T02:31:43.310Z,15.90
2022-08-22T02:34:42.732Z,15.70
2022-08-22T02:37:15.632Z,15.60
2022-08-22T02:39:48.637Z,15.50
2022-08-22T02:42:34.787Z,15.30
2022-08-22T02:45:14.072Z,15.40
2022-08-22T02:48:32.484Z,15.30
2022-08-22T02:51:17.479Z,15.30
2022-08-22T02:54:24.789Z,15.30
2022-08-22T02:57:14.318Z,15.30
2022-08-22T03:00:31.791Z,15.30
2022-08-22T03:03:15.823Z,15.30
2022-08-22T03:05:45.783Z,15.20
2022-08-22T03:08:29.382Z,15.20
2022-08-22T03:11:13.815Z,15.20
2022-08-22T03:14:17.527Z,15.20
2022-08-22T03:17:45.288Z,15.20
2022-08-22T03:20:23.318Z,15.10
2022-08-22T03:23:36.971Z,15.10
2022-08-22T03:26:14.875Z,15.00
2022-08-22T03:29:04.959Z,14.90
2022-08-22T03:31:32.959Z,14.80
2022-08-22T03:34:28.944Z,14.80
2022-08-22T03:37:11.787Z,14.80
2022-08-22T03:40:20.176Z,14.80
2022-08-22T03:43:21.549Z,14.70
2022-08-22T03:46:07.724Z,14.60
2022-08-22T03:49:02.401Z,14.50
2022-08-22T03:52:13.919Z,14.40
2022-08-22T03:55:24.277Z,14.30
2022-08-22T03:58:27.896Z,14.30
2022-08-22T04:01:26.662Z,14.30
2022-08-22T04:04:09.551Z,14.30
2022-08-22T04:07:11.810Z,14.40
2022-08-22T04:10:36.986Z,14.40
2022-08-22T04:13:25.176Z,14.30
2022-08-22T04:16:20.841Z,14.20
2022-08-22T04:19:18.481Z,14.20
2022-08-22T04:22:15.879Z,14.20
2022-08-22T04:25:15.607Z,14.20
2022-08-22T04:28:03.619Z,14.20
2022-08-22T04:30:58.545Z,14.20
2022-08-22T04:33:39.575Z,14.20
2022-08-22T04:36:31.315Z,14.10
2022-08-22T04:39:07.243Z,14.00
2022-08-22T04:42:00.646Z,14.00
2022-08-22T04:44:46.644Z,14.00
2022-08-22T04:48:21.511Z,14.00
2022-08-22T04:51:03.737Z,14.10
2022-08-22T04:54:20.954Z,14.10
2022-08-22T04:57:23.351Z,14.10
2022-08-22T04:59:51.152Z,14.00
2022-08-22T05:02:24.969Z,14.10
2022-08-22T05:05:04.716Z,14.10
2022-08-22T05:07:47.282Z,14.20
2022-08-22T05:10:32.957Z,14.20
2022-08-22T05:13:18.047Z,14.20
2022-08-22T05:15:51.027Z,14.30
2022-08-22T05:18:25.556Z,14.30
2022-08-22T05:21:04.390Z,14.30
2022-08-22T05:23:59.854Z,14.40
2022-08-22T05:26:28.497Z,14.50
2022-08-22T05:29:03.605Z,14.50
2022-08-22T05:31:35.592Z,14.50
2022-08-22T05:34:13.592Z,14.60
2022-08-22T05:37:08.340Z,14.70
2022-08-22T05:39:38.915Z,14.70
2022-08-22T05:42:12.384Z,14.80
2022-08-22T05:44:39.796Z,14.90
2022-08-22T05:47:34.190Z,15.00
2022-08-22T05:50:18.694Z,15.20
2022-08-22T05:53:13.172Z,15.30
2022-08-22T05:56:05.045Z,15.40
2022-08-22T05:58:53.753Z,15.50
2022-08-22T06:01:34.140Z,15.70
2022-08-22T06:04:08.581Z,15.90
2022-08-22T06:06:48.075Z,16.10
2022-08-22T06:09:47.751Z,16.30
2022-08-22T06:12:26.472Z,16.60
2022-08-22T06:15:21.067Z,16.80
2022-08-22T06:17:54.175Z,17.20
2022-08-22T06:20:27.018Z,17.40
2022-08-22T06:23:01.424Z,17.60
2022-08-22T06:25:32.729Z,17.70
2022-08-22T06:28:16.525Z,18.00
2022-08-22T06:30:46.150Z,18.20
2022-08-22T06:33:21.330Z,18.30
2022-08-22T06:36:11.384Z,18.50
2022-08-22T06:39:11.559Z,18.70
2022-08-22T06:42:12.135Z,19.00
2022-08-22T06:44:52.179Z,19.20
2022-08-22T06:47:29.167Z,19.30
2022-08-22T06:50:31.078Z,19.50
2022-08-22T06:53:01.018Z,19.70
2022-08-22T06:55:30.195Z,19.90
2022-08-22T06:58:04.050Z,20.00
2022-08-22T07:00:34.880Z,20.10
2022-08-22T07:03:08.710Z,20.20
2022-08-22T07:05:40.336Z,20.30
2022-08-22T07:08:12.392Z,20.40
2022-08-22T07:10:57.610Z,20.50
2022-08-22T07:13:26.432Z,20.60
2022-08-22T07:15:57.711Z,20.70
2022-08-22T07:18:29.677Z,20.90
2022-08-22T07:21:04.508Z,20.90
2022-08-22T07:23:40.514Z,21.00
2022-08-22T07:26:20.905Z,21.00
2022-08-22T07:29:19.801Z,20.90
2022-08-22T07:32:10.199Z,20.90
2022-08-22T07:35:24.529Z,21.00
2022-08-22T07:38:05.590Z,21.10
2022-08-22T07:41:00.641Z,21.20
2022-08-22T07:43:48.431Z,21.30
2022-08-22T07:46:33.923Z,21.40
2022-08-22T07:49:29.763Z,21.40
2022-08-22T07:52:08.251Z,21.30
2022-08-22T07:54:57.837Z,21.30
2022-08-22T07:57:36.597Z,21.40
2022-08-22T08:00:13.184Z,21.60
2022-08-22T08:02:58.258Z,21.70
2022-08-22T08:05:29.528Z,21.80
2022-08-22T08:07:57.839Z,21.90
2022-08-22T08:10:34.516Z,22.00
2022-08-22T08:13:08.259Z,22.10
2022-08-22T08:15:37.705Z,22.20
2022-08-22T08:18:11.346Z,22.40
2022-08-22T08:20:39.210Z,22.60
2022-08-22T08:23:10.719Z,22.90
2022-08-22T08:26:19.336Z,23.20
2022-08-22T08:28:50.895Z,23.50
2022-08-22T08:31:38.055Z,23.70
2022-08-22T08:34:24.444Z,24.20
2022-08-22T08:37:04.848Z,24.60
2022-08-22T08:39:54.570Z,25.00
2022-08-22T08:43:21.093Z,25.40
2022-08-22T08:46:28.046Z,25.80
2022-08-22T08:49:21.014Z,26.30
2022-08-22T08:54:51.580Z,26.60
2022-08-22T09:03:24.058Z,28.40
2022-08-22T09:06:42.516Z,27.90
2022-08-22T09:09:38.744Z,28.00
2022-08-22T09:12:56.480Z,28.20
2022-08-22T09:16:26.362Z,28.50
2022-08-22T09:19:32.295Z,29.00
2022-08-22T09:22:54.383Z,29.40
2022-08-22T09:26:06.866Z,29.50
2022-08-22T09:28:53.567Z,29.70
2022-08-22T09:31:47.623Z,29.90
2022-08-22T09:34:37.924Z,30.10
2022-08-22T09:38:08.518Z,30.30
2022-08-22T09:40:50.592Z,30.20
2022-08-22T09:43:45.693Z,30.60
2022-08-22T09:46:36.789Z,30.40
2022-08-22T09:49:32.806Z,30.30
2022-08-22T09:52:36.926Z,29.90
2022-08-22T09:55:17.010Z,29.60
2022-08-22T09:58:11.510Z,29.80
2022-08-22T10:01:10.788Z,30.10
2022-08-22T10:04:19.493Z,30.70
2022-08-22T10:07:16.935Z,31.20
2022-08-22T10:10:14.622Z,31.50
2022-08-22T10:13:12.123Z,31.30
2022-08-22T10:16:34.740Z,31.80
2022-08-22T10:19:16.642Z,32.00
2022-08-22T10:22:30.949Z,31.80
2022-08-22T10:25:22.598Z,32.50
2022-08-22T10:28:16.853Z,32.20
2022-08-22T10:31:08.588Z,32.00
2022-08-22T10:33:59.919Z,31.90
2022-08-22T10:37:05.689Z,31.70
2022-08-22T10:39:47.665Z,30.80
2022-08-22T10:42:30.156Z,30.00
2022-08-22T10:45:16.345Z,29.40
2022-08-22T10:47:54.233Z,28.80
2022-08-22T10:50:36.584Z,28.60
2022-08-22T10:53:30.476Z,28.60
2022-08-22T10:56:09.393Z,29.10
2022-08-22T10:59:29.255Z,29.50
2022-08-22T11:02:35.201Z,30.20
2022-08-22T11:05:28.176Z,30.70
2022-08-22T11:08:46.049Z,31.70
2022-08-22T11:11:44.183Z,32.30
2022-08-22T11:14:31.643Z,33.20
2022-08-22T11:17:40.710Z,33.50
2022-08-22T11:20:22.310Z,33.90
2022-08-22T11:23:24.085Z,34.00
2022-08-22T11:26:29.232Z,33.50
2022-08-22T11:29:25.118Z,33.00
2022-08-22T11:32:34.736Z,33.30
2022-08-22T11:35:11.858Z,33.80
2022-08-22T11:38:14.544Z,34.20
2022-08-22T11:41:00.485Z,34.30
2022-08-22T11:43:48.175Z,34.10
2022-08-22T11:46:19.914Z,33.20
2022-08-22T11:49:03.480Z,32.80
2022-08-22T11:52:03.750Z,33.00
2022-08-22T11:54:42.363Z,33.00
2022-08-22T11:57:31.067Z,32.60
2022-08-22T12:00:32.589Z,32.30
2022-08-22T12:03:23.322Z,32.10
2022-08-22T12:06:30.780Z,32.40
2022-08-22T12:09:35.832Z,32.10
2022-08-22T12:12:34.783Z,32.30
2022-08-22T12:15:14.275Z,32.50
2022-08-22T12:18:21.179Z,32.50
2022-08-22T12:21:22.106Z,31.90
2022-08-22T12:24:28.920Z,31.40
2022-08-22T12:27:41.984Z,31.60
2022-08-22T12:30:34.619Z,31.70
2022-08-22T12:33:22.956Z,32.00
2022-08-22T12:36:24.146Z,32.40
2022-08-22T12:39:00.093Z,32.10
2022-08-22T12:42:05.035Z,32.10
2022-08-22T12:45:17.431Z,32.00
2022-08-22T12:48:27.414Z,31.80
2022-08-22T12:51:17.364Z,31.70
2022-08-22T12:54:15.071Z,31.20
2022-08-22T12:57:25.174Z,30.60
2022-08-22T13:00:30.669Z,30.80
2022-08-22T13:03:04.037Z,31.60
2022-08-22T13:05:40.374Z,32.20
2022-08-22T13:08:44.450Z,32.50
2022-08-22T13:11:22.279Z,32.40
2022-08-22T13:13:58.360Z,32.80
2022-08-22T13:16:38.929Z,32.90
2022-08-22T13:19:14.550Z,33.00
2022-08-22T13:21:56.951Z,34.00
2022-08-22T13:24:51.877Z,34.80
2022-08-22T13:28:00.899Z,35.50
2022-08-22T13:30:38.875Z,36.10
2022-08-22T13:33:12.510Z,36.70
2022-08-22T13:36:06.716Z,36.90
2022-08-22T13:38:48.713Z,37.30
2022-08-22T13:41:26.093Z,37.10
2022-08-22T13:44:08.824Z,36.60
2022-08-22T13:46:44.504Z,35.90
2022-08-22T13:49:42.444Z,35.70
2022-08-22T13:52:49.320Z,35.70
2022-08-22T13:55:49.579Z,34.30
2022-08-22T13:58:40.202Z,33.20
2022-08-22T14:01:32.361Z,32.70
2022-08-22T14:04:26.661Z,32.20
2022-08-22T14:07:29.477Z,31.80
2022-08-22T14:10:03.787Z,31.50
2022-08-22T14:12:56.960Z,31.20
2022-08-22T14:15:45.308Z,31.00
2022-08-22T14:18:30.423Z,31.10
2022-08-22T14:21:33.359Z,31.50
2022-08-22T14:24:25.659Z,31.60
2022-08-22T14:27:13.688Z,31.70
2022-08-22T14:29:53.471Z,31.60
2022-08-22T14:32:29.706Z,31.90
2022-08-22T14:35:25.733Z,32.20
2022-08-22T14:38:17.821Z,34.00
2022-08-22T14:40:46.091Z,36.20
2022-08-22T14:43:28.831Z,36.00
2022-08-22T14:46:09.091Z,35.20
2022-08-22T14:49:13.480Z,34.50
2022-08-22T14:52:02.254Z,34.00
2022-08-22T14:54:31.774Z,33.70
2022-08-22T14:57:02.685Z,33.30
2022-08-22T14:59:50.272Z,33.00
2022-08-22T15:02:33.085Z,32.60
2022-08-22T15:05:13.189Z,32.00
2022-08-22T15:40:11.630Z,38.20
2022-08-22T15:42:47.053Z,39.90
2022-08-22T15:45:36.409Z,40.70
2022-08-22T15:48:23.944Z,40.70
2022-08-22T15:51:13.484Z,40.90
2022-08-22T15:54:25.033Z,41.00
2022-08-22T15:56:52.804Z,41.30
2022-08-22T15:59:53.476Z,41.20
2022-08-22T16:02:27.946Z,40.10
2022-08-22T16:05:08.939Z,38.00
2022-08-22T16:07:38.795Z,37.30
2022-08-22T16:10:38.518Z,36.60
2022-08-22T16:13:32.097Z,35.30
2022-08-22T16:16:13.901Z,34.70
2022-08-22T16:18:42.475Z,34.20
2022-08-22T16:21:16.783Z,34.10
2022-08-22T16:23:58.536Z,34.10
2022-08-22T16:26:31.571Z,33.50
2022-08-22T16:29:14.805Z,33.00
2022-08-22T16:31:44.969Z,32.50
2022-08-22T16:34:18.031Z,32.10
2022-08-22T16:37:03.195Z,31.90
2022-08-22T16:39:59.216Z,31.70
2022-08-22T16:42:40.649Z,31.40
2022-08-22T16:45:15.731Z,31.20
2022-08-22T16:47:57.809Z,31.10
2022-08-22T16:50:35.689Z,30.90
2022-08-22T16:53:49.114Z,30.40
2022-08-22T16:56:47.183Z,30.10
2022-08-22T16:59:47.018Z,29.90
2022-08-22T17:02:27.109Z,29.80
2022-08-22T17:05:30.241Z,29.60
2022-08-22T17:08:10.015Z,29.40
2022-08-22T17:11:13.796Z,29.20
2022-08-22T17:14:17.770Z,29.10
2022-08-22T17:17:12.668Z,29.00
2022-08-22T17:20:09.008Z,28.80
2022-08-22T17:23:13.554Z,28.70
2022-08-22T17:25:59.980Z,28.50
2022-08-22T17:28:34.335Z,28.30
2022-08-22T17:31:21.243Z,28.10
2022-08-22T17:34:44.679Z,28.10
2022-08-22T17:37:43.713Z,28.00
2022-08-22T17:40:52.636Z,28.00
2022-08-22T17:43:48.385Z,27.90
2022-08-22T17:46:34.458Z,27.80
2022-08-22T17:49:40.804Z,27.70
2022-08-22T17:52:41.118Z,27.70
2022-08-22T17:55:20.921Z,27.60
2022-08-22T17:57:56.909Z,27.40
2022-08-22T18:00:40.364Z,27.30
2022-08-22T18:03:29.509Z,27.20
2022-08-22T18:06:11.383Z,27.20
2022-08-22T18:11:45.079Z,27.20
2022-08-22T18:14:44.388Z,27.10
2022-08-22T18:17:27.614Z,27.10
2022-08-22T18:20:23.827Z,26.90
2022-08-22T18:23:28.370Z,26.80
2022-08-22T18:26:21.424Z,26.70
2022-08-22T18:29:03.658Z,26.60
2022-08-22T18:32:00.514Z,26.50
2022-08-22T18:34:42.920Z,26.30
2022-08-22T18:37:21.891Z,26.10
2022-08-22T18:40:05.092Z,25.90
2022-08-22T18:42:57.431Z,25.70
2022-08-22T18:45:46.170Z,25.50
2022-08-22T18:48:33.888Z,25.40
2022-08-22T18:51:31.045Z,25.30
2022-08-22T18:54:23.399Z,25.30
2022-08-22T18:56:54.808Z,25.20
2022-08-22T18:59:52.632Z,25.10
2022-08-22T19:03:12.473Z,25.10
2022-08-22T19:06:25.606Z,25.00
2022-08-22T19:09:25.034Z,24.90
2022-08-22T19:12:26.035Z,24.70
2022-08-22T19:15:34.294Z,24.50
2022-08-22T19:18:50.415Z,24.30
2022-08-22T19:21:55.690Z,24.10
2022-08-22T19:24:25.593Z,24.00
2022-08-22T19:27:10.534Z,23.80
2022-08-22T19:29:37.444Z,23.70
2022-08-22T19:32:13.291Z,23.50
2022-08-22T19:34:47.005Z,23.50
2022-08-22T19:37:31.921Z,23.40
2022-08-22T19:40:09.499Z,23.30
2022-08-22T19:42:40.026Z,23.30
2022-08-22T19:45:29.034Z,23.20
2022-08-22T19:48:11.698Z,23.10
2022-08-22T19:50:41.749Z,23.00
2022-08-22T19:53:42.473Z,22.70
2022-08-22T19:59:26.143Z,22.30
2022-08-22T20:02:01.278Z,22.20
2022-08-22T20:04:35.994Z,22.10
2022-08-22T20:07:40.360Z,22.00
2022-08-22T20:10:58.819Z,22.00
2022-08-22T20:13:33.341Z,21.90
2022-08-22T20:16:10.441Z,21.80
2022-08-22T20:19:08.326Z,21.70
2022-08-22T20:21:49.985Z,21.60
2022-08-22T20:24:45.012Z,21.40
2022-08-22T20:27:46.615Z,21.30
2022-08-22T20:30:19.026Z,21.30
2022-08-22T20:33:02.103Z,21.30
2022-08-22T20:36:00.119Z,21.30
2022-08-22T20:39:08.858Z,21.40
2022-08-22T20:41:42.662Z,21.50
2022-08-22T20:44:27.469Z,21.50
2022-08-22T20:47:09.324Z,21.50
2022-08-22T20:49:50.564Z,21.30
2022-08-22T20:52:41.482Z,21.10
2022-08-22T20:55:14.584Z,20.90
2022-08-22T20:58:01.156Z,20.80
2022-08-22T21:00:41.714Z,20.80
2022-08-22T21:03:25.203Z,20.80
2022-08-22T21:05:52.145Z,20.60
2022-08-22T21:08:26.538Z,20.50
2022-08-22T21:11:21.298Z,20.40
2022-08-22T21:13:49.001Z,20.30
2022-08-22T21:16:37.793Z,20.20
2022-08-22T21:19:17.355Z,20.20
2022-08-22T21:21:44.276Z,20.20
2022-08-22T21:24:11.442Z,20.10
2022-08-22T21:26:59.489Z,20.10
2022-08-22T21:29:32.817Z,20.00
2022-08-22T21:32:11.410Z,19.90
2022-08-22T21:34:44.786Z,19.80
2022-08-22T21:37:22.781Z,19.80
2022-08-22T21:40:21.023Z,19.70
2022-08-22T21:43:05.805Z,19.70
2022-08-22T21:45:41.985Z,19.60
2022-08-22T21:48:30.910Z,19.40
2022-08-22T21:51:21.579Z,19.40
2022-08-22T21:53:48.851Z,19.30
2022-08-22T21:56:30.664Z,19.40
2022-08-22T21:59:26.745Z,19.30
2022-08-22T22:02:41.627Z,19.30
2022-08-22T22:05:17.026Z,19.20
2022-08-22T22:07:47.104Z,19.10
2022-08-22T22:10:18.886Z,19.10
2022-08-22T22:12:48.553Z,19.20
2022-08-22T22:15:23.075Z,19.20
2022-08-22T22:17:50.240Z,19.10
2022-08-22T22:20:20.333Z,19.00
2022-08-22T22:22:47.614Z,19.00
2022-08-22T22:25:39.597Z,18.90
2022-08-22T22:28:25.002Z,18.80
2022-08-22T22:30:55.832Z,18.70
2022-08-22T22:33:27.816Z,18.60
2022-08-22T22:35:58.227Z,18.50
2022-08-22T22:38:25.650Z,18.60
2022-08-22T22:40:53.036Z,18.60
2022-08-22T22:43:20.083Z,18.50
2022-08-22T22:50:51.979Z,17.80
2022-08-22T22:53:21.214Z,18.10
2022-08-22T22:55:59.693Z,18.10
2022-08-22T22:58:28.715Z,18.00
2022-08-22T23:00:56.794Z,17.90
2022-08-22T23:03:25.906Z,18.00
2022-08-22T23:05:52.872Z,17.90
2022-08-22T23:08:20.227Z,17.90
2022-08-22T23:10:47.267Z,17.90
2022-08-22T23:13:14.230Z,17.90
2022-08-22T23:15:41.445Z,17.80
2022-08-22T23:18:08.415Z,17.80
2022-08-22T23:20:35.379Z,17.80
2022-08-22T23:23:02.454Z,17.80
2022-08-22T23:25:29.371Z,17.70
2022-08-22T23:27:57.863Z,17.70
2022-08-22T23:30:24.867Z,17.60
2022-08-22T23:32:51.966Z,17.50
2022-08-22T23:35:19.084Z,17.40
2022-08-22T23:37:46.028Z,17.30
2022-08-22T23:40:13.158Z,17.20
2022-08-22T23:42:40.288Z,17.10
2022-08-22T23:45:07.615Z,17.10
2022-08-22T23:47:34.600Z,17.00
2022-08-22T23:50:06.148Z,17.10
2022-08-22T23:52:33.736Z,17.20
2022-08-22T23:55:00.674Z,17.30
2022-08-22T23:57:29.491Z,17.20
2022-08-22T23:59:57.643Z,17.20
